createdAt,value
2018-03-23T00:00:32.453Z,3.90
2018-03-23T00:05:23.333Z,3.90
2018-03-23T00:10:14.218Z,3.90
2018-03-23T00:15:05.853Z,3.90
2018-03-23T00:19:56.789Z,3.90
2018-03-23T00:24:48.424Z,3.90
2018-03-23T00:29:39.309Z,3.90
2018-03-23T00:34:30.197Z,3.90
2018-03-23T00:39:21.831Z,3.90
2018-03-23T00:44:12.709Z,3.80
2018-03-23T00:49:03.608Z,3.90
2018-03-23T00:53:55.224Z,3.90
2018-03-23T00:58:46.125Z,3.90
2018-03-23T01:03:37.019Z,3.90
2018-03-23T01:08:28.668Z,3.80
2018-03-23T01:13:19.560Z,3.80
2018-03-23T01:18:10.464Z,3.80
2018-03-23T01:23:01.344Z,3.80
2018-03-23T01:27:52.224Z,3.80
2018-03-23T01:32:43.114Z,3.80
2018-03-23T01:37:34.794Z,3.80
2018-03-23T01:42:25.863Z,3.80
2018-03-23T01:47:16.772Z,3.80
2018-03-23T01:52:07.674Z,3.80
2018-03-23T01:56:58.574Z,3.80
2018-03-23T02:01:49.453Z,3.70
2018-03-23T02:06:40.338Z,3.70
2018-03-23T02:11:31.226Z,3.70
2018-03-23T02:16:22.178Z,3.60
2018-03-23T02:21:13.079Z,3.60
2018-03-23T02:26:03.984Z,3.50
2018-03-23T02:30:55.610Z,3.50
2018-03-23T02:35:46.511Z,3.40
2018-03-23T02:40:37.407Z,3.40
2018-03-23T02:45:28.351Z,3.40
2018-03-23T02:50:19.252Z,3.30
2018-03-23T02:55:10.152Z,3.30
2018-03-23T03:00:01.785Z,3.20
2018-03-23T03:04:52.677Z,3.20
2018-03-23T03:09:43.580Z,3.20
2018-03-23T03:14:34.477Z,3.10
2018-03-23T03:19:26.105Z,3.00
2018-03-23T03:24:17.008Z,3.00
2018-03-23T03:29:07.916Z,3.00
2018-03-23T03:33:58.819Z,3.00
2018-03-23T03:38:50.473Z,2.90
2018-03-23T03:43:42.102Z,2.90
2018-03-23T03:48:32.990Z,2.90
2018-03-23T03:53:23.877Z,2.90
2018-03-23T03:58:15.588Z,2.80
2018-03-23T04:03:06.498Z,2.80
2018-03-23T04:07:57.400Z,2.80
2018-03-23T04:12:48.416Z,2.80
2018-03-23T04:17:40.098Z,2.70
2018-03-23T04:22:31.194Z,2.70
2018-03-23T04:27:22.822Z,2.70
2018-03-23T04:32:13.710Z,2.70
2018-03-23T04:37:04.598Z,2.70
2018-03-23T04:41:56.260Z,2.60
2018-03-23T04:46:47.156Z,2.60
2018-03-23T04:51:38.807Z,2.60
2018-03-23T04:56:30.449Z,2.60
2018-03-23T05:01:21.433Z,2.70
2018-03-23T05:06:12.340Z,2.60
2018-03-23T05:11:03.234Z,2.50
2018-03-23T05:15:54.947Z,2.50
2018-03-23T05:20:45.946Z,2.50
2018-03-23T05:25:36.841Z,2.50
2018-03-23T05:30:27.740Z,2.50
2018-03-23T05:35:18.630Z,2.50
2018-03-23T05:40:09.531Z,2.50
2018-03-23T05:45:00.424Z,2.40
2018-03-23T05:49:52.076Z,2.40
2018-03-23T05:54:42.965Z,2.40
2018-03-23T05:59:33.900Z,2.40
2018-03-23T06:04:24.803Z,2.40
2018-03-23T06:09:15.694Z,2.50
2018-03-23T06:14:07.333Z,2.50
2018-03-23T06:18:58.988Z,2.60
2018-03-23T06:23:50.640Z,2.60
2018-03-23T06:28:41.780Z,2.60
2018-03-23T06:33:32.769Z,2.70
2018-03-23T06:38:23.598Z,2.70
2018-03-23T06:43:14.500Z,2.80
2018-03-23T06:48:05.393Z,2.80
2018-03-23T06:52:57.018Z,3.00
2018-03-23T06:57:47.927Z,3.00
2018-03-23T07:02:38.822Z,3.10
2018-03-23T07:07:30.476Z,3.10
2018-03-23T07:12:21.366Z,3.10
2018-03-23T07:17:12.273Z,3.20
2018-03-23T07:22:03.366Z,3.30
2018-03-23T07:26:54.268Z,3.30
2018-03-23T07:31:45.916Z,3.40
2018-03-23T07:36:37.620Z,3.50
2018-03-23T07:41:28.538Z,3.40
2018-03-23T07:46:19.449Z,3.50
2018-03-23T07:51:10.361Z,3.50
2018-03-23T07:56:01.272Z,3.50
2018-03-23T08:00:52.918Z,3.60
2018-03-23T08:05:44.584Z,3.60
2018-03-23T08:10:35.548Z,3.60
2018-03-23T08:15:26.525Z,3.60
2018-03-23T08:20:18.167Z,3.70
2018-03-23T08:25:09.798Z,3.70
2018-03-23T08:30:00.813Z,3.60
2018-03-23T08:34:51.736Z,3.70
2018-03-23T08:39:42.635Z,3.70
2018-03-23T08:44:33.640Z,3.70
2018-03-23T08:49:24.610Z,3.80
2018-03-23T08:54:15.498Z,3.80
2018-03-23T08:59:06.409Z,3.90
2018-03-23T09:03:57.298Z,4.00
2018-03-23T09:08:48.184Z,4.10
2018-03-23T09:13:39.073Z,4.30
2018-03-23T09:18:30.732Z,4.50
2018-03-23T09:23:21.632Z,4.50
2018-03-23T09:28:14.258Z,4.80
2018-03-23T09:33:05.184Z,4.80
2018-03-23T09:37:56.074Z,4.90
2018-03-23T09:42:47.702Z,5.10
2018-03-23T09:47:38.596Z,5.00
2018-03-23T09:52:29.490Z,5.10
2018-03-23T09:57:20.392Z,5.10
2018-03-23T10:02:11.288Z,5.10
2018-03-23T10:07:02.937Z,5.10
2018-03-23T10:11:53.826Z,5.20
2018-03-23T10:16:44.726Z,5.20
2018-03-23T10:21:36.364Z,5.20
2018-03-23T10:26:28.041Z,5.20
2018-03-23T10:31:18.939Z,5.20
2018-03-23T10:36:09.839Z,5.20
2018-03-23T10:41:00.744Z,5.20
2018-03-23T10:45:51.648Z,5.10
2018-03-23T10:50:43.288Z,5.10
2018-03-23T10:55:34.179Z,5.10
2018-03-23T11:00:31.195Z,5.00
2018-03-23T11:05:22.086Z,5.00
2018-03-23T11:10:12.988Z,5.00
2018-03-23T11:15:03.870Z,5.00
2018-03-23T11:19:54.764Z,4.90
2018-03-23T11:24:46.399Z,4.90
2018-03-23T11:29:37.307Z,4.90
2018-03-23T11:34:28.216Z,4.90
2018-03-23T11:39:19.313Z,4.80
2018-03-23T11:44:10.959Z,4.90
2018-03-23T11:49:02.595Z,4.90
2018-03-23T11:53:53.492Z,4.90
2018-03-23T11:58:44.378Z,5.00
2018-03-23T12:03:35.276Z,5.10
2018-03-23T12:08:26.170Z,5.20
2018-03-23T12:13:17.058Z,5.30
2018-03-23T12:18:07.962Z,5.40
2018-03-23T12:22:58.864Z,5.50
2018-03-23T12:27:49.749Z,5.50
2018-03-23T12:32:40.656Z,5.60
2018-03-23T12:37:31.546Z,5.60
2018-03-23T12:42:23.187Z,5.60
2018-03-23T12:47:14.087Z,5.60
2018-03-23T12:52:05.784Z,5.50
2018-03-23T12:56:57.442Z,5.40
2018-03-23T13:01:48.333Z,5.40
2018-03-23T13:06:39.249Z,5.50
2018-03-23T13:11:30.173Z,5.40
2018-03-23T13:16:21.079Z,5.40
2018-03-23T13:21:12.022Z,5.40
2018-03-23T13:26:02.922Z,5.40
2018-03-23T13:30:53.832Z,5.40
2018-03-23T13:35:44.751Z,5.40
2018-03-23T13:40:36.378Z,5.30
2018-03-23T13:45:27.279Z,5.30
2018-03-23T13:50:18.195Z,5.30
2018-03-23T13:55:09.984Z,5.20
2018-03-23T14:00:00.991Z,5.20
2018-03-23T14:04:51.912Z,5.20
2018-03-23T14:09:42.812Z,5.10
2018-03-23T14:14:34.454Z,5.10
2018-03-23T14:19:25.347Z,5.10
2018-03-23T14:24:16.247Z,5.10
2018-03-23T14:29:07.159Z,5.10
2018-03-23T14:33:58.804Z,5.10
2018-03-23T14:38:50.434Z,5.10
2018-03-23T14:43:41.436Z,5.10
2018-03-23T14:48:32.330Z,5.10
2018-03-23T14:53:23.965Z,5.10
2018-03-23T14:58:15.620Z,5.10
2018-03-23T15:03:06.509Z,5.10
2018-03-23T15:07:57.394Z,5.20
2018-03-23T15:12:49.105Z,5.20
2018-03-23T15:17:40.014Z,5.20
2018-03-23T15:22:30.930Z,5.20
2018-03-23T15:27:21.836Z,5.20
2018-03-23T15:32:12.726Z,5.20
2018-03-23T15:37:03.620Z,5.30
2018-03-23T15:41:54.554Z,5.30
2018-03-23T15:46:45.443Z,5.20
2018-03-23T15:51:37.077Z,5.20
2018-03-23T15:56:28.727Z,5.20
2018-03-23T16:01:20.444Z,5.20
2018-03-23T16:06:11.379Z,5.20
2018-03-23T16:11:02.662Z,5.10
2018-03-23T16:15:53.568Z,5.10
2018-03-23T16:20:45.213Z,5.10
2018-03-23T16:25:36.842Z,5.00
2018-03-23T16:30:28.550Z,5.00
2018-03-23T16:35:19.482Z,4.90
2018-03-23T16:40:10.387Z,4.90
2018-03-23T16:45:01.312Z,4.80
2018-03-23T16:49:52.205Z,4.80
2018-03-23T16:54:43.876Z,4.70
2018-03-23T16:59:34.784Z,4.70
2018-03-23T17:04:26.443Z,4.60
2018-03-23T17:09:18.088Z,4.50
2018-03-23T17:14:09.813Z,4.50
2018-03-23T17:19:00.697Z,4.50
2018-03-23T17:23:51.596Z,4.50
2018-03-23T17:28:43.229Z,4.30
2018-03-23T17:33:34.875Z,4.30
2018-03-23T17:38:25.771Z,4.30
2018-03-23T17:43:16.662Z,4.20
2018-03-23T17:48:07.563Z,4.20
2018-03-23T17:52:58.454Z,4.10
2018-03-23T17:57:49.359Z,4.10
2018-03-23T18:02:42.239Z,4.00
2018-03-23T18:07:33.191Z,4.00
2018-03-23T18:12:24.096Z,3.90
2018-03-23T18:17:14.985Z,3.90
2018-03-23T18:22:06.628Z,3.80
2018-03-23T18:26:58.338Z,3.80
2018-03-23T18:31:49.284Z,3.70
2018-03-23T18:36:40.187Z,3.70
2018-03-23T18:41:31.077Z,3.70
2018-03-23T18:46:21.977Z,3.70
2018-03-23T18:51:12.883Z,3.60
2018-03-23T18:56:03.792Z,3.60
2018-03-23T19:00:55.448Z,3.50
2018-03-23T19:05:46.346Z,3.50
2018-03-23T19:10:39.653Z,3.50
2018-03-23T19:15:31.321Z,3.50
2018-03-23T19:20:22.205Z,3.40
2018-03-23T19:25:13.130Z,3.40
2018-03-23T19:30:04.766Z,3.40
2018-03-23T19:34:55.664Z,3.40
2018-03-23T19:39:46.553Z,3.40
2018-03-23T19:44:37.531Z,3.30
2018-03-23T19:49:28.450Z,3.30
2018-03-23T19:54:19.400Z,3.30
2018-03-23T19:59:10.307Z,3.30
2018-03-23T20:04:01.322Z,3.20
2018-03-23T20:08:52.960Z,3.20
2018-03-23T20:13:50.870Z,3.20
2018-03-23T20:18:42.509Z,3.20
2018-03-23T20:23:33.402Z,3.10
2018-03-23T20:28:30.527Z,3.20
2018-03-23T20:33:21.422Z,3.10
2018-03-23T20:38:12.361Z,3.10
2018-03-23T20:43:03.286Z,3.10
2018-03-23T20:47:54.181Z,3.10
2018-03-23T20:52:45.144Z,3.00
2018-03-23T20:57:36.063Z,3.00
2018-03-23T21:02:26.969Z,3.00
2018-03-23T21:07:17.919Z,3.00
2018-03-23T21:12:08.816Z,3.00
2018-03-23T21:16:59.724Z,3.00
2018-03-23T21:21:51.376Z,2.90
2018-03-23T21:26:43.028Z,2.90
2018-03-23T21:31:34.661Z,2.80
2018-03-23T21:36:25.550Z,2.90
2018-03-23T21:41:16.437Z,2.80
2018-03-23T21:46:07.347Z,2.80
2018-03-23T21:50:58.252Z,2.80
2018-03-23T21:55:49.224Z,2.80
2018-03-23T22:00:40.118Z,2.80
2018-03-23T22:05:31.066Z,2.80
2018-03-23T22:10:21.984Z,2.70
2018-03-23T22:15:12.930Z,2.70
2018-03-23T22:20:03.818Z,2.70
2018-03-23T22:24:54.802Z,2.70
2018-03-23T22:29:45.712Z,2.70
2018-03-23T22:34:36.623Z,2.70
2018-03-23T22:39:27.510Z,2.70
2018-03-23T22:44:19.138Z,2.60
2018-03-23T22:49:10.036Z,2.60
2018-03-23T22:54:00.944Z,2.60
2018-03-23T22:58:51.842Z,2.60
2018-03-23T23:03:42.730Z,2.60
2018-03-23T23:08:33.625Z,2.60
2018-03-23T23:13:24.505Z,2.50
2018-03-23T23:18:15.402Z,2.50
2018-03-23T23:23:06.304Z,2.50
2018-03-23T23:27:57.213Z,2.50
2018-03-23T23:32:48.857Z,2.40
2018-03-23T23:37:39.762Z,2.40
2018-03-23T23:42:30.660Z,2.40
2018-03-23T23:47:21.560Z,2.40
2018-03-23T23:52:12.455Z,2.40
2018-03-23T23:57:04.097Z,2.30
